sensor_id;sensor_type;location;lat;lon;timestamp;pressure;altitude;pressure_sealevel;temperature
66180;BMP280;52986;44.028;20.466;2023-05-24T00:01:03;97860.56;;;13.95
66180;BMP280;52986;44.028;20.466;2023-05-24T00:03:31;97869.63;;;13.97
66180;BMP280;52986;44.028;20.466;2023-05-24T00:06:01;97861.00;;;13.93
66180;BMP280;52986;44.028;20.466;2023-05-24T00:08:27;97861.84;;;13.99
66180;BMP280;52986;44.028;20.466;2023-05-24T00:10:53;97860.34;;;13.98
66180;BMP280;52986;44.028;20.466;2023-05-24T00:13:18;97862.38;;;14.03
66180;BMP280;52986;44.028;20.466;2023-05-24T00:15:44;97860.66;;;14.00
66180;BMP280;52986;44.028;20.466;2023-05-24T00:18:09;97870.44;;;13.89
66180;BMP280;52986;44.028;20.466;2023-05-24T00:20:34;97862.75;;;13.82
66180;BMP280;52986;44.028;20.466;2023-05-24T00:23:00;97855.31;;;13.76
66180;BMP280;52986;44.028;20.466;2023-05-24T00:25:25;97851.31;;;13.72
66180;BMP280;52986;44.028;20.466;2023-05-24T00:27:50;97851.78;;;13.70
66180;BMP280;52986;44.028;20.466;2023-05-24T00:30:16;97860.94;;;13.64
66180;BMP280;52986;44.028;20.466;2023-05-24T00:32:41;97861.41;;;13.62
66180;BMP280;52986;44.028;20.466;2023-05-24T00:35:07;97859.63;;;13.59
66180;BMP280;52986;44.028;20.466;2023-05-24T00:37:32;97858.91;;;13.59
66180;BMP280;52986;44.028;20.466;2023-05-24T00:39:58;97864.22;;;13.44
66180;BMP280;52986;44.028;20.466;2023-05-24T00:42:23;97854.69;;;13.43
66180;BMP280;52986;44.028;20.466;2023-05-24T00:44:48;97854.41;;;13.41
66180;BMP280;52986;44.028;20.466;2023-05-24T00:47:14;97855.78;;;13.36
66180;BMP280;52986;44.028;20.466;2023-05-24T00:49:40;97859.78;;;13.41
66180;BMP280;52986;44.028;20.466;2023-05-24T00:52:06;97852.28;;;13.45
66180;BMP280;52986;44.028;20.466;2023-05-24T00:54:33;97851.25;;;13.42
66180;BMP280;52986;44.028;20.466;2023-05-24T00:56:59;97852.59;;;13.38
66180;BMP280;52986;44.028;20.466;2023-05-24T00:59:25;97861.16;;;13.36
66180;BMP280;52986;44.028;20.466;2023-05-24T01:01:51;97850.97;;;13.40
66180;BMP280;52986;44.028;20.466;2023-05-24T01:04:16;97859.03;;;13.40
66180;BMP280;52986;44.028;20.466;2023-05-24T01:07:05;97854.19;;;13.44
66180;BMP280;52986;44.028;20.466;2023-05-24T01:09:35;97856.34;;;13.40
66180;BMP280;52986;44.028;20.466;2023-05-24T01:12:27;97860.88;;;13.34
66180;BMP280;52986;44.028;20.466;2023-05-24T01:14:59;97858.53;;;13.27
66180;BMP280;52986;44.028;20.466;2023-05-24T01:17:38;97857.97;;;13.23
66180;BMP280;52986;44.028;20.466;2023-05-24T01:20:08;97853.47;;;13.20
66180;BMP280;52986;44.028;20.466;2023-05-24T01:28:17;97843.25;;;13.09
66180;BMP280;52986;44.028;20.466;2023-05-24T01:30:43;97846.09;;;13.06
66180;BMP280;52986;44.028;20.466;2023-05-24T01:33:09;97849.41;;;13.01
66180;BMP280;52986;44.028;20.466;2023-05-24T01:35:35;97845.25;;;13.00
66180;BMP280;52986;44.028;20.466;2023-05-24T01:38:08;97844.84;;;12.92
66180;BMP280;52986;44.028;20.466;2023-05-24T01:40:35;97846.06;;;12.91
66180;BMP280;52986;44.028;20.466;2023-05-24T01:43:07;97845.16;;;12.85
66180;BMP280;52986;44.028;20.466;2023-05-24T01:46:05;97838.13;;;12.88
66180;BMP280;52986;44.028;20.466;2023-05-24T01:51:33;97835.44;;;12.88
66180;BMP280;52986;44.028;20.466;2023-05-24T01:54:03;97844.72;;;12.87
66180;BMP280;52986;44.028;20.466;2023-05-24T01:56:30;97834.41;;;12.85
66180;BMP280;52986;44.028;20.466;2023-05-24T01:58:58;97842.78;;;12.87
66180;BMP280;52986;44.028;20.466;2023-05-24T02:01:25;97838.94;;;12.79
66180;BMP280;52986;44.028;20.466;2023-05-24T02:03:51;97840.59;;;12.76
66180;BMP280;52986;44.028;20.466;2023-05-24T02:06:16;97837.94;;;12.67
66180;BMP280;52986;44.028;20.466;2023-05-24T02:08:41;97843.00;;;12.65
66180;BMP280;52986;44.028;20.466;2023-05-24T02:11:07;97837.97;;;12.58
66180;BMP280;52986;44.028;20.466;2023-05-24T02:13:32;97835.28;;;12.58
66180;BMP280;52986;44.028;20.466;2023-05-24T02:15:57;97843.94;;;12.62
66180;BMP280;52986;44.028;20.466;2023-05-24T02:18:23;97847.22;;;12.66
66180;BMP280;52986;44.028;20.466;2023-05-24T02:20:48;97845.56;;;12.69
66180;BMP280;52986;44.028;20.466;2023-05-24T02:23:14;97850.66;;;12.67
66180;BMP280;52986;44.028;20.466;2023-05-24T02:25:40;97848.69;;;12.67
66180;BMP280;52986;44.028;20.466;2023-05-24T02:28:05;97851.38;;;12.67
66180;BMP280;52986;44.028;20.466;2023-05-24T02:30:30;97847.50;;;12.68
66180;BMP280;52986;44.028;20.466;2023-05-24T02:32:56;97845.25;;;12.67
66180;BMP280;52986;44.028;20.466;2023-05-24T02:35:21;97844.41;;;12.61
66180;BMP280;52986;44.028;20.466;2023-05-24T02:37:46;97846.41;;;12.42
66180;BMP280;52986;44.028;20.466;2023-05-24T02:40:12;97847.91;;;12.34
66180;BMP280;52986;44.028;20.466;2023-05-24T02:42:37;97849.97;;;12.30
66180;BMP280;52986;44.028;20.466;2023-05-24T02:45:03;97856.28;;;12.27
66180;BMP280;52986;44.028;20.466;2023-05-24T02:47:28;97846.13;;;12.31
66180;BMP280;52986;44.028;20.466;2023-05-24T02:49:54;97855.06;;;12.37
66180;BMP280;52986;44.028;20.466;2023-05-24T02:52:20;97847.16;;;12.42
66180;BMP280;52986;44.028;20.466;2023-05-24T02:54:47;97840.09;;;12.45
66180;BMP280;52986;44.028;20.466;2023-05-24T02:57:13;97846.09;;;12.49
66180;BMP280;52986;44.028;20.466;2023-05-24T02:59:38;97845.03;;;12.46
66180;BMP280;52986;44.028;20.466;2023-05-24T03:02:04;97847.72;;;12.46
66180;BMP280;52986;44.028;20.466;2023-05-24T03:04:29;97851.03;;;12.41
66180;BMP280;52986;44.028;20.466;2023-05-24T03:06:54;97848.78;;;12.40
66180;BMP280;52986;44.028;20.466;2023-05-24T03:09:20;97854.34;;;12.36
66180;BMP280;52986;44.028;20.466;2023-05-24T03:11:45;97848.50;;;12.38
66180;BMP280;52986;44.028;20.466;2023-05-24T03:14:11;97850.84;;;12.45
66180;BMP280;52986;44.028;20.466;2023-05-24T03:16:36;97854.28;;;12.45
66180;BMP280;52986;44.028;20.466;2023-05-24T03:19:02;97847.56;;;12.50
66180;BMP280;52986;44.028;20.466;2023-05-24T03:21:28;97852.22;;;12.49
66180;BMP280;52986;44.028;20.466;2023-05-24T03:23:53;97857.72;;;12.55
66180;BMP280;52986;44.028;20.466;2023-05-24T03:26:19;97855.31;;;12.57
66180;BMP280;52986;44.028;20.466;2023-05-24T03:28:45;97861.41;;;12.58
66180;BMP280;52986;44.028;20.466;2023-05-24T03:31:11;97857.09;;;12.60
66180;BMP280;52986;44.028;20.466;2023-05-24T03:33:37;97858.38;;;12.65
66180;BMP280;52986;44.028;20.466;2023-05-24T03:36:03;97858.72;;;12.67
66180;BMP280;52986;44.028;20.466;2023-05-24T03:38:29;97859.75;;;12.69
66180;BMP280;52986;44.028;20.466;2023-05-24T03:40:55;97867.94;;;12.75
66180;BMP280;52986;44.028;20.466;2023-05-24T03:43:21;97873.59;;;12.77
66180;BMP280;52986;44.028;20.466;2023-05-24T03:45:46;97874.28;;;12.87
66180;BMP280;52986;44.028;20.466;2023-05-24T03:48:12;97875.75;;;12.97
66180;BMP280;52986;44.028;20.466;2023-05-24T03:50:37;97874.94;;;13.05
66180;BMP280;52986;44.028;20.466;2023-05-24T03:53:03;97872.66;;;13.13
66180;BMP280;52986;44.028;20.466;2023-05-24T03:55:28;97873.50;;;13.19
66180;BMP280;52986;44.028;20.466;2023-05-24T03:57:54;97879.59;;;13.29
66180;BMP280;52986;44.028;20.466;2023-05-24T04:00:19;97886.28;;;13.33
66180;BMP280;52986;44.028;20.466;2023-05-24T04:02:45;97884.75;;;13.41
66180;BMP280;52986;44.028;20.466;2023-05-24T04:05:12;97886.16;;;13.52
66180;BMP280;52986;44.028;20.466;2023-05-24T04:07:38;97889.25;;;13.59
66180;BMP280;52986;44.028;20.466;2023-05-24T04:10:05;97892.91;;;13.71
66180;BMP280;52986;44.028;20.466;2023-05-24T04:12:31;97892.81;;;13.80
66180;BMP280;52986;44.028;20.466;2023-05-24T04:14:58;97887.00;;;13.82
66180;BMP280;52986;44.028;20.466;2023-05-24T04:17:23;97892.19;;;13.85
66180;BMP280;52986;44.028;20.466;2023-05-24T04:19:50;97893.47;;;13.90
66180;BMP280;52986;44.028;20.466;2023-05-24T04:22:16;97888.69;;;13.94
66180;BMP280;52986;44.028;20.466;2023-05-24T04:24:43;97899.19;;;14.06
66180;BMP280;52986;44.028;20.466;2023-05-24T04:27:08;97894.34;;;14.10
66180;BMP280;52986;44.028;20.466;2023-05-24T04:29:34;97893.22;;;14.17
66180;BMP280;52986;44.028;20.466;2023-05-24T04:32:00;97897.22;;;14.22
66180;BMP280;52986;44.028;20.466;2023-05-24T04:34:26;97893.41;;;14.28
66180;BMP280;52986;44.028;20.466;2023-05-24T04:36:54;97898.06;;;14.42
66180;BMP280;52986;44.028;20.466;2023-05-24T04:39:20;97895.47;;;14.48
66180;BMP280;52986;44.028;20.466;2023-05-24T04:41:45;97896.63;;;14.62
66180;BMP280;52986;44.028;20.466;2023-05-24T04:44:18;97896.72;;;14.67
66180;BMP280;52986;44.028;20.466;2023-05-24T04:46:43;97892.13;;;14.88
66180;BMP280;52986;44.028;20.466;2023-05-24T04:49:09;97899.56;;;15.14
66180;BMP280;52986;44.028;20.466;2023-05-24T04:51:34;97892.69;;;15.33
66180;BMP280;52986;44.028;20.466;2023-05-24T04:54:03;97889.50;;;15.55
66180;BMP280;52986;44.028;20.466;2023-05-24T04:56:35;97888.09;;;15.85
66180;BMP280;52986;44.028;20.466;2023-05-24T04:59:05;97897.00;;;16.17
66180;BMP280;52986;44.028;20.466;2023-05-24T05:01:31;97894.16;;;16.32
66180;BMP280;52986;44.028;20.466;2023-05-24T05:03:57;97894.81;;;16.58
66180;BMP280;52986;44.028;20.466;2023-05-24T05:06:23;97890.81;;;16.85
66180;BMP280;52986;44.028;20.466;2023-05-24T05:08:49;97891.22;;;17.15
66180;BMP280;52986;44.028;20.466;2023-05-24T05:11:14;97896.69;;;17.37
66180;BMP280;52986;44.028;20.466;2023-05-24T05:13:40;97898.97;;;17.50
66180;BMP280;52986;44.028;20.466;2023-05-24T05:16:05;97900.00;;;17.75
66180;BMP280;52986;44.028;20.466;2023-05-24T05:18:31;97892.59;;;17.98
66180;BMP280;52986;44.028;20.466;2023-05-24T05:20:57;97893.84;;;18.08
66180;BMP280;52986;44.028;20.466;2023-05-24T05:23:23;97899.28;;;18.08
66180;BMP280;52986;44.028;20.466;2023-05-24T05:25:48;97894.84;;;18.27
66180;BMP280;52986;44.028;20.466;2023-05-24T05:28:14;97900.22;;;18.72
66180;BMP280;52986;44.028;20.466;2023-05-24T05:30:39;97897.38;;;19.00
66180;BMP280;52986;44.028;20.466;2023-05-24T05:33:04;97894.56;;;19.22
66180;BMP280;52986;44.028;20.466;2023-05-24T05:35:30;97897.44;;;19.41
66180;BMP280;52986;44.028;20.466;2023-05-24T05:37:57;97898.97;;;19.72
66180;BMP280;52986;44.028;20.466;2023-05-24T05:40:22;97906.81;;;19.81
66180;BMP280;52986;44.028;20.466;2023-05-24T05:42:48;97904.78;;;20.23
66180;BMP280;52986;44.028;20.466;2023-05-24T05:45:14;97902.72;;;20.53
66180;BMP280;52986;44.028;20.466;2023-05-24T05:47:40;97911.25;;;20.87
66180;BMP280;52986;44.028;20.466;2023-05-24T05:50:06;97912.78;;;21.07
66180;BMP280;52986;44.028;20.466;2023-05-24T05:52:31;97914.09;;;21.38
66180;BMP280;52986;44.028;20.466;2023-05-24T05:54:57;97919.13;;;21.65
66180;BMP280;52986;44.028;20.466;2023-05-24T05:57:23;97917.69;;;21.78
66180;BMP280;52986;44.028;20.466;2023-05-24T05:59:49;97916.88;;;21.96
66180;BMP280;52986;44.028;20.466;2023-05-24T06:02:14;97920.75;;;21.87
66180;BMP280;52986;44.028;20.466;2023-05-24T06:04:40;97918.72;;;22.07
66180;BMP280;52986;44.028;20.466;2023-05-24T06:07:05;97926.53;;;22.55
66180;BMP280;52986;44.028;20.466;2023-05-24T06:09:30;97930.59;;;22.88
66180;BMP280;52986;44.028;20.466;2023-05-24T06:11:56;97923.28;;;23.17
66180;BMP280;52986;44.028;20.466;2023-05-24T06:14:21;97922.72;;;23.52
66180;BMP280;52986;44.028;20.466;2023-05-24T06:16:49;97921.38;;;23.80
66180;BMP280;52986;44.028;20.466;2023-05-24T06:19:16;97920.22;;;23.96
66180;BMP280;52986;44.028;20.466;2023-05-24T06:21:43;97927.78;;;24.11
66180;BMP280;52986;44.028;20.466;2023-05-24T06:24:13;97926.06;;;24.29
66180;BMP280;52986;44.028;20.466;2023-05-24T06:26:39;97927.09;;;24.46
66180;BMP280;52986;44.028;20.466;2023-05-24T06:29:04;97924.25;;;24.67
66180;BMP280;52986;44.028;20.466;2023-05-24T06:31:31;97925.31;;;25.08
66180;BMP280;52986;44.028;20.466;2023-05-24T06:33:57;97926.13;;;25.38
66180;BMP280;52986;44.028;20.466;2023-05-24T06:36:22;97932.53;;;25.94
66180;BMP280;52986;44.028;20.466;2023-05-24T06:38:47;97936.31;;;26.37
66180;BMP280;52986;44.028;20.466;2023-05-24T06:41:13;97944.84;;;26.64
66180;BMP280;52986;44.028;20.466;2023-05-24T06:43:38;97941.22;;;26.93
66180;BMP280;52986;44.028;20.466;2023-05-24T06:46:05;97938.47;;;27.26
66180;BMP280;52986;44.028;20.466;2023-05-24T06:48:30;97944.66;;;27.59
66180;BMP280;52986;44.028;20.466;2023-05-24T06:50:56;97942.63;;;27.84
66180;BMP280;52986;44.028;20.466;2023-05-24T06:53:21;97949.72;;;27.87
66180;BMP280;52986;44.028;20.466;2023-05-24T06:55:47;97933.94;;;28.22
66180;BMP280;52986;44.028;20.466;2023-05-24T06:58:12;97936.88;;;28.07
66180;BMP280;52986;44.028;20.466;2023-05-24T07:00:41;97943.16;;;27.83
66180;BMP280;52986;44.028;20.466;2023-05-24T07:03:08;97937.38;;;28.30
66180;BMP280;52986;44.028;20.466;2023-05-24T07:05:34;97941.72;;;28.50
66180;BMP280;52986;44.028;20.466;2023-05-24T07:07:59;97945.91;;;28.95
66180;BMP280;52986;44.028;20.466;2023-05-24T07:10:25;97948.38;;;29.28
66180;BMP280;52986;44.028;20.466;2023-05-24T07:12:50;97944.25;;;29.56
66180;BMP280;52986;44.028;20.466;2023-05-24T07:15:16;97939.44;;;29.47
66180;BMP280;52986;44.028;20.466;2023-05-24T07:17:42;97938.66;;;29.36
66180;BMP280;52986;44.028;20.466;2023-05-24T07:20:08;97944.63;;;30.08
66180;BMP280;52986;44.028;20.466;2023-05-24T07:22:36;97947.81;;;30.93
66180;BMP280;52986;44.028;20.466;2023-05-24T07:25:01;97943.66;;;32.52
66180;BMP280;52986;44.028;20.466;2023-05-24T07:27:27;97940.47;;;34.13
66180;BMP280;52986;44.028;20.466;2023-05-24T07:29:52;97942.94;;;35.28
66180;BMP280;52986;44.028;20.466;2023-05-24T07:32:18;97935.06;;;35.81
66180;BMP280;52986;44.028;20.466;2023-05-24T07:34:43;97936.72;;;37.13
66180;BMP280;52986;44.028;20.466;2023-05-24T07:37:09;97932.31;;;37.77
66180;BMP280;52986;44.028;20.466;2023-05-24T07:39:34;97927.16;;;38.66
66180;BMP280;52986;44.028;20.466;2023-05-24T07:42:00;97940.56;;;38.89
66180;BMP280;52986;44.028;20.466;2023-05-24T07:44:25;97928.75;;;38.51
66180;BMP280;52986;44.028;20.466;2023-05-24T07:46:51;97930.47;;;39.23
66180;BMP280;52986;44.028;20.466;2023-05-24T07:49:16;97933.41;;;39.27
66180;BMP280;52986;44.028;20.466;2023-05-24T07:51:41;97931.09;;;39.65
66180;BMP280;52986;44.028;20.466;2023-05-24T07:54:07;97937.88;;;40.83
66180;BMP280;52986;44.028;20.466;2023-05-24T07:56:33;97935.84;;;41.17
66180;BMP280;52986;44.028;20.466;2023-05-24T07:58:58;97935.00;;;41.40
66180;BMP280;52986;44.028;20.466;2023-05-24T08:01:32;97934.66;;;40.69
66180;BMP280;52986;44.028;20.466;2023-05-24T08:03:59;97939.09;;;41.35
66180;BMP280;52986;44.028;20.466;2023-05-24T08:06:25;97940.03;;;40.86
66180;BMP280;52986;44.028;20.466;2023-05-24T08:08:50;97938.97;;;40.20
66180;BMP280;52986;44.028;20.466;2023-05-24T08:11:16;97941.72;;;39.92
66180;BMP280;52986;44.028;20.466;2023-05-24T08:13:43;97947.44;;;40.74
66180;BMP280;52986;44.028;20.466;2023-05-24T08:16:08;97949.00;;;40.79
66180;BMP280;52986;44.028;20.466;2023-05-24T08:18:33;97948.41;;;41.74
66180;BMP280;52986;44.028;20.466;2023-05-24T08:20:59;97950.84;;;42.65
66180;BMP280;52986;44.028;20.466;2023-05-24T08:23:25;97952.09;;;42.96
66180;BMP280;52986;44.028;20.466;2023-05-24T08:25:51;97952.53;;;42.80
66180;BMP280;52986;44.028;20.466;2023-05-24T08:28:17;97951.19;;;40.82
66180;BMP280;52986;44.028;20.466;2023-05-24T08:30:43;97930.91;;;37.95
66180;BMP280;52986;44.028;20.466;2023-05-24T08:33:08;97946.69;;;36.20
66180;BMP280;52986;44.028;20.466;2023-05-24T08:35:34;97938.47;;;36.24
66180;BMP280;52986;44.028;20.466;2023-05-24T08:38:00;97935.38;;;36.02
66180;BMP280;52986;44.028;20.466;2023-05-24T08:40:26;97939.16;;;34.94
66180;BMP280;52986;44.028;20.466;2023-05-24T08:42:51;97931.56;;;33.06
66180;BMP280;52986;44.028;20.466;2023-05-24T08:45:17;97939.91;;;31.39
66180;BMP280;52986;44.028;20.466;2023-05-24T08:47:43;97942.09;;;30.41
66180;BMP280;52986;44.028;20.466;2023-05-24T08:50:09;97951.16;;;30.03
66180;BMP280;52986;44.028;20.466;2023-05-24T08:52:35;97960.31;;;30.44
66180;BMP280;52986;44.028;20.466;2023-05-24T08:55:03;97947.78;;;30.62
66180;BMP280;52986;44.028;20.466;2023-05-24T08:57:30;97945.69;;;29.47
66180;BMP280;52986;44.028;20.466;2023-05-24T08:59:56;97941.75;;;29.04
66180;BMP280;52986;44.028;20.466;2023-05-24T09:02:23;97945.78;;;28.76
66180;BMP280;52986;44.028;20.466;2023-05-24T09:04:49;97950.00;;;28.50
66180;BMP280;52986;44.028;20.466;2023-05-24T09:07:21;97954.13;;;27.90
66180;BMP280;52986;44.028;20.466;2023-05-24T09:09:56;97956.19;;;27.65
66180;BMP280;52986;44.028;20.466;2023-05-24T09:12:22;97955.69;;;27.34
66180;BMP280;52986;44.028;20.466;2023-05-24T09:14:48;97951.63;;;27.03
66180;BMP280;52986;44.028;20.466;2023-05-24T09:17:14;97962.25;;;26.74
66180;BMP280;52986;44.028;20.466;2023-05-24T09:19:46;97956.84;;;26.43
66180;BMP280;52986;44.028;20.466;2023-05-24T09:22:12;97957.41;;;26.27
66180;BMP280;52986;44.028;20.466;2023-05-24T09:25:00;97955.41;;;26.19
66180;BMP280;52986;44.028;20.466;2023-05-24T09:27:26;97960.34;;;26.21
66180;BMP280;52986;44.028;20.466;2023-05-24T09:29:52;97965.31;;;26.15
66180;BMP280;52986;44.028;20.466;2023-05-24T09:32:20;97964.22;;;26.10
66180;BMP280;52986;44.028;20.466;2023-05-24T09:34:49;97966.78;;;26.08
66180;BMP280;52986;44.028;20.466;2023-05-24T09:37:18;97958.72;;;26.10
66180;BMP280;52986;44.028;20.466;2023-05-24T09:39:46;97966.41;;;26.12
66180;BMP280;52986;44.028;20.466;2023-05-24T09:42:22;97968.66;;;26.69
66180;BMP280;52986;44.028;20.466;2023-05-24T09:45:05;97964.59;;;27.67
66180;BMP280;52986;44.028;20.466;2023-05-24T09:47:37;97967.50;;;28.63
66180;BMP280;52986;44.028;20.466;2023-05-24T09:50:04;97967.66;;;29.55
66180;BMP280;52986;44.028;20.466;2023-05-24T09:52:30;97981.31;;;32.01
66180;BMP280;52986;44.028;20.466;2023-05-24T09:54:56;97978.41;;;34.20
66180;BMP280;52986;44.028;20.466;2023-05-24T09:57:21;97966.53;;;33.57
66180;BMP280;52986;44.028;20.466;2023-05-24T09:59:48;97963.66;;;33.55
66180;BMP280;52986;44.028;20.466;2023-05-24T10:02:15;97958.88;;;33.21
66180;BMP280;52986;44.028;20.466;2023-05-24T10:04:42;97981.72;;;34.55
66180;BMP280;52986;44.028;20.466;2023-05-24T10:07:08;97989.69;;;36.31
66180;BMP280;52986;44.028;20.466;2023-05-24T10:09:34;97973.31;;;37.88
66180;BMP280;52986;44.028;20.466;2023-05-24T10:12:02;97979.38;;;38.77
66180;BMP280;52986;44.028;20.466;2023-05-24T10:14:33;97979.50;;;39.44
66180;BMP280;52986;44.028;20.466;2023-05-24T10:17:01;97979.88;;;39.32
66180;BMP280;52986;44.028;20.466;2023-05-24T10:19:27;97981.66;;;39.91
66180;BMP280;52986;44.028;20.466;2023-05-24T10:21:55;97972.72;;;39.29
66180;BMP280;52986;44.028;20.466;2023-05-24T10:24:24;97961.44;;;39.49
66180;BMP280;52986;44.028;20.466;2023-05-24T10:26:51;97947.59;;;38.90
66180;BMP280;52986;44.028;20.466;2023-05-24T10:29:32;97961.63;;;36.42
66180;BMP280;52986;44.028;20.466;2023-05-24T10:32:01;97966.34;;;35.50
66180;BMP280;52986;44.028;20.466;2023-05-24T10:34:28;97972.41;;;34.12
66180;BMP280;52986;44.028;20.466;2023-05-24T10:36:56;97981.34;;;35.43
66180;BMP280;52986;44.028;20.466;2023-05-24T10:39:24;97987.38;;;36.72
66180;BMP280;52986;44.028;20.466;2023-05-24T10:41:49;97975.34;;;35.48
66180;BMP280;52986;44.028;20.466;2023-05-24T10:44:17;97973.38;;;33.19
66180;BMP280;52986;44.028;20.466;2023-05-24T10:47:10;97976.81;;;32.62
66180;BMP280;52986;44.028;20.466;2023-05-24T10:49:37;97984.47;;;31.65
66180;BMP280;52986;44.028;20.466;2023-05-24T10:52:08;97989.25;;;29.95
66180;BMP280;52986;44.028;20.466;2023-05-24T10:54:34;97998.47;;;29.51
66180;BMP280;52986;44.028;20.466;2023-05-24T10:57:03;97980.13;;;30.11
66180;BMP280;52986;44.028;20.466;2023-05-24T10:59:37;97990.66;;;31.32
66180;BMP280;52986;44.028;20.466;2023-05-24T11:02:06;97974.72;;;30.33
66180;BMP280;52986;44.028;20.466;2023-05-24T11:04:46;97981.00;;;28.85
66180;BMP280;52986;44.028;20.466;2023-05-24T11:07:14;97997.06;;;27.93
66180;BMP280;52986;44.028;20.466;2023-05-24T11:09:40;97995.66;;;27.35
66180;BMP280;52986;44.028;20.466;2023-05-24T11:12:14;98006.88;;;26.89
66180;BMP280;52986;44.028;20.466;2023-05-24T11:14:40;98010.69;;;26.39
66180;BMP280;52986;44.028;20.466;2023-05-24T11:17:10;98010.16;;;25.87
66180;BMP280;52986;44.028;20.466;2023-05-24T11:19:37;98005.59;;;25.82
66180;BMP280;52986;44.028;20.466;2023-05-24T11:22:06;98000.06;;;25.59
66180;BMP280;52986;44.028;20.466;2023-05-24T11:24:32;98005.00;;;25.76
66180;BMP280;52986;44.028;20.466;2023-05-24T11:26:58;97996.56;;;26.50
66180;BMP280;52986;44.028;20.466;2023-05-24T11:29:24;98007.06;;;28.06
66180;BMP280;52986;44.028;20.466;2023-05-24T11:31:54;98006.06;;;29.07
66180;BMP280;52986;44.028;20.466;2023-05-24T11:34:22;97994.81;;;29.49
66180;BMP280;52986;44.028;20.466;2023-05-24T11:36:49;97981.09;;;29.77
66180;BMP280;52986;44.028;20.466;2023-05-24T11:39:17;97989.16;;;29.20
66180;BMP280;52986;44.028;20.466;2023-05-24T11:41:43;97990.38;;;28.73
66180;BMP280;52986;44.028;20.466;2023-05-24T11:44:10;97996.00;;;28.31
66180;BMP280;52986;44.028;20.466;2023-05-24T11:46:37;97996.31;;;27.93
66180;BMP280;52986;44.028;20.466;2023-05-24T11:49:04;97982.75;;;28.29
66180;BMP280;52986;44.028;20.466;2023-05-24T11:51:31;97980.69;;;28.81
66180;BMP280;52986;44.028;20.466;2023-05-24T11:53:57;97976.84;;;29.30
66180;BMP280;52986;44.028;20.466;2023-05-24T11:56:24;97980.34;;;29.77
66180;BMP280;52986;44.028;20.466;2023-05-24T11:58:58;97969.56;;;29.62
66180;BMP280;52986;44.028;20.466;2023-05-24T12:01:25;97981.03;;;29.68
66180;BMP280;52986;44.028;20.466;2023-05-24T12:03:51;97971.13;;;29.55
66180;BMP280;52986;44.028;20.466;2023-05-24T12:06:18;97969.50;;;29.42
66180;BMP280;52986;44.028;20.466;2023-05-24T12:08:44;97979.81;;;29.32
66180;BMP280;52986;44.028;20.466;2023-05-24T12:11:10;97988.09;;;29.32
66180;BMP280;52986;44.028;20.466;2023-05-24T12:13:35;97995.78;;;29.34
66180;BMP280;52986;44.028;20.466;2023-05-24T12:16:02;97978.22;;;29.03
66180;BMP280;52986;44.028;20.466;2023-05-24T12:18:27;97980.56;;;28.89
66180;BMP280;52986;44.028;20.466;2023-05-24T12:20:53;97973.41;;;29.03
66180;BMP280;52986;44.028;20.466;2023-05-24T12:23:19;97979.34;;;29.26
66180;BMP280;52986;44.028;20.466;2023-05-24T12:25:45;97976.44;;;29.34
66180;BMP280;52986;44.028;20.466;2023-05-24T12:28:12;97977.34;;;28.83
66180;BMP280;52986;44.028;20.466;2023-05-24T12:30:37;97972.72;;;28.24
66180;BMP280;52986;44.028;20.466;2023-05-24T12:33:10;97976.06;;;27.56
66180;BMP280;52986;44.028;20.466;2023-05-24T12:35:36;97975.09;;;26.64
66180;BMP280;52986;44.028;20.466;2023-05-24T12:38:07;97964.00;;;26.24
66180;BMP280;52986;44.028;20.466;2023-05-24T12:40:33;97975.94;;;25.88
66180;BMP280;52986;44.028;20.466;2023-05-24T12:42:58;97976.25;;;25.31
66180;BMP280;52986;44.028;20.466;2023-05-24T12:45:25;97970.78;;;24.88
66180;BMP280;52986;44.028;20.466;2023-05-24T12:47:53;97973.38;;;24.57
66180;BMP280;52986;44.028;20.466;2023-05-24T12:50:21;97973.66;;;24.18
66180;BMP280;52986;44.028;20.466;2023-05-24T12:52:47;97968.72;;;23.96
66180;BMP280;52986;44.028;20.466;2023-05-24T12:55:17;97970.19;;;23.76
66180;BMP280;52986;44.028;20.466;2023-05-24T12:57:42;97969.53;;;23.83
66180;BMP280;52986;44.028;20.466;2023-05-24T13:00:09;97962.09;;;23.70
66180;BMP280;52986;44.028;20.466;2023-05-24T13:02:35;97957.72;;;23.67
66180;BMP280;52986;44.028;20.466;2023-05-24T13:05:01;97954.47;;;23.69
66180;BMP280;52986;44.028;20.466;2023-05-24T13:07:28;97952.78;;;23.86
66180;BMP280;52986;44.028;20.466;2023-05-24T13:09:54;97950.16;;;24.02
66180;BMP280;52986;44.028;20.466;2023-05-24T13:12:20;97941.78;;;24.28
66180;BMP280;52986;44.028;20.466;2023-05-24T13:14:45;97944.84;;;24.53
66180;BMP280;52986;44.028;20.466;2023-05-24T13:17:11;97946.25;;;24.75
66180;BMP280;52986;44.028;20.466;2023-05-24T13:19:36;97946.09;;;24.88
66180;BMP280;52986;44.028;20.466;2023-05-24T13:22:01;97943.94;;;24.94
66180;BMP280;52986;44.028;20.466;2023-05-24T13:24:27;97930.97;;;25.02
66180;BMP280;52986;44.028;20.466;2023-05-24T13:26:52;97923.16;;;25.06
66180;BMP280;52986;44.028;20.466;2023-05-24T13:29:18;97925.38;;;25.23
66180;BMP280;52986;44.028;20.466;2023-05-24T13:31:43;97917.00;;;25.44
66180;BMP280;52986;44.028;20.466;2023-05-24T13:34:09;97917.75;;;25.67
66180;BMP280;52986;44.028;20.466;2023-05-24T13:36:37;97926.72;;;25.67
66180;BMP280;52986;44.028;20.466;2023-05-24T13:39:02;97929.09;;;25.71
66180;BMP280;52986;44.028;20.466;2023-05-24T13:41:28;97932.16;;;25.37
66180;BMP280;52986;44.028;20.466;2023-05-24T13:43:54;97931.94;;;25.20
66180;BMP280;52986;44.028;20.466;2023-05-24T13:46:19;97938.13;;;25.05
66180;BMP280;52986;44.028;20.466;2023-05-24T13:48:45;97931.31;;;24.91
66180;BMP280;52986;44.028;20.466;2023-05-24T13:51:11;97924.50;;;24.77
66180;BMP280;52986;44.028;20.466;2023-05-24T13:53:36;97923.16;;;24.62
66180;BMP280;52986;44.028;20.466;2023-05-24T13:56:02;97916.88;;;24.47
66180;BMP280;52986;44.028;20.466;2023-05-24T13:58:28;97923.25;;;24.49
66180;BMP280;52986;44.028;20.466;2023-05-24T14:00:54;97930.56;;;24.47
66180;BMP280;52986;44.028;20.466;2023-05-24T14:03:20;97930.13;;;24.35